Aviation Digital Data Service (ADDS)

Output produced by METARs form (1909 UTC 26 March 2015)
found at http://www.aviationweather.gov/adds/metars/
 
KDFW 261726Z 2618/2724 36016G24KT P6SM SKC 
     FM270000 33007KT P6SM SKC 
     FM270500 25005KT P6SM SKC 
     FM271600 34012KT P6SM SKC